Ride Results

National Capital Brookvale (02-09-2017)
Ride distance: 80.0 km

Outcomes - National Capital Brookvale (02-09-2017)
Division No. of Entries Retired / DNE Completed Withdrawn Ineligible V/O Percentage Completed
HW 6 - 5 - - 1 83.33%
MW 15 - 10 - 1 4 66.67%
LW 9 - 7 - - 2 77.78%
JN 7 - 7 - - - 100.00%
Totals 37 - 29 - 1 7 78.38%
Results - National Capital Brookvale (02-09-2017)
No. Rider Horse Place Time Leg Speeds Total
Km/Hr
H/R bpm
Heavyweight
16 Roy Barsby Dumaresq Buzz 1 6:31:00 11.8, 13.0 12.28 39, 36, 45 (Avg:40)
17 John Robertson Karabil Asis 1 6:31:00 14.8, 9.5 12.28 33, 34, 57 (Avg:45)
32 Heidi Wade Love In The Mist 3 (BC) 6:39:00 12.6, 11.1 12.03 40, 42, 42 (Avg:42)
28 Rhys Norman Owata Park Amirah 4 7:17:00 11.4, 10.2 10.98 37, 43, 49 (Avg:46)
12 Stephen Deering Caramea Razzle Dazzle 5 9:13:00 10.0, 7.0 8.68 38, 46, 56 (Avg:51)
27 Peter Norman Renbury Brian Gall or injury L1 0:00:00 11.4 - 38, 48 (Avg:48)
Middleweight
23 Georgia Curry Mountain Breeze Just Annallusion 1 (BC) 5:20:00 15.1, 14.7 15.00 34, 45, 41 (Avg:43)
30 Clare Feary Die Kinder Junrei 2 6:25:00 14.7, 9.8 12.47 44, 41, 49 (Avg:45)
40 Jesse Buchan Blake's Heaven Summer Reign 3 6:51:00 12.2, 10.7 11.68 32, 43, 55 (Avg:49)
37 Daniel Noble Sbara Oscar 4 7:19:00 11.6, 9.8 10.93 31, 42, 42 (Avg:42)
21 Mitchell Ravallion Sangah Rose of Lilani 5 7:31:00 11.4, 9.4 10.64 27, 42, 49 (Avg:45)
48 Kristin Reese Eminem Vyper 6 8:07:00 10.3, 9.1 9.86 38, 39, 54 (Avg:46)
6 Noni Seagrim Coolinda Park Sheeza Doll 6 8:07:00 10.3, 9.1 9.86 32, 42, 40 (Avg:41)
3 Kylie Jonkers Girilambone Venus 8 8:33:00 9.9, 8.5 9.36 42, 42, 44 (Avg:43)
42 Amelia Napier Candynae 9 8:48:00 9.6, 8.2 9.09 36, 43, 48 (Avg:45)
15 Rowena Robinson Karumba Nazrani 10 9:09:00 9.9, 7.2 8.74 36, 48, 56 (Avg:52)
44 Patricia Mesiti Kingstown Summer Rain Failure to lead L2 0:00:00 8.8, 7.9 - 40, 52, 60 (Avg:56)
47 Anita Ashby Lentara Park Heather Lame L1 0:00:00 11.1 - 40, 42 (Avg:42)
46 Adeline Gibson Blake's Heaven Bombora Lame L1 0:00:00 12.2 - 40, 42 (Avg:42)
18 Scott Peters Stoodleigh Colonial Boy Heart Rate L1 0:00:00 14.8 - 36, 60 (Avg:60)
43 Bev Turner Coco Chanel Disqualified P/R 0:00:00 - - 48
Lightweight
41 Sorsha Stuart-Rokvic Brag Ngood 1 (BC) 5:53:00 14.7, 11.9 13.60 42, 45, 45 (Avg:45)
31 April Newman Valinor Park Vatel 2 6:32:00 12.6, 11.6 12.24 36, 42, 42 (Avg:42)
29 Fia Hasko-Stewart Blake's Heaven Venus 3 6:51:00 12.2, 10.7 11.68 37, 42, 45 (Avg:43)
19 Victoria Bice Coolinda Park Walencia 4 8:07:00 10.3, 9.1 9.86 37, 52, 50 (Avg:51)
20 Matthew Dunne Coolinda Park Lukasz 4 8:07:00 10.3, 9.1 9.86 34, 42, 34 (Avg:38)
25 Miki Bell Blake's Heaven Hiraani 6 8:57:00 9.9, 7.6 8.94 30, 39, 44 (Avg:41)
26 Hanna Eronen Blake's Heaven Adventuress 6 8:57:00 9.9, 7.6 8.94 30, 40, 50 (Avg:45)
36 Kim Noble Springridge Red Astaire Lame L2 0:00:00 11.7, 9.8 - 48, 51, 54 (Avg:52)
22 Julie Hooper A'Landell Enigma Heart Rate L1 0:00:00 11.4 - 37, 68 (Avg:68)
Junior
35 Alison Noble Mizzi Couger 1 (BC) 5:20:00 15.1, 14.7 15.00 36, 42, 48 (Avg:45)
33 Laura Kelly Yinbilliko Shaka Zulu 2 6:39:00 12.6, 11.1 12.03 36, 45, 52 (Avg:48)
34 Lily Wheeler Yinbilliko Jackson 2 6:39:00 12.6, 11.1 12.03 32, 36, 43 (Avg:39)
38 Hannah Phillips Sbara Dollar Never Cease 4 7:19:00 11.6, 9.8 10.93 44, 40, 45 (Avg:42)
24 Celia Hodgson Blake's Heaven Carousel 5 7:26:00 11.1, 10.1 10.76 28, 43, 45 (Avg:44)
39 Hannah Cossor Future Dreams Smudge 6 8:48:00 9.6, 8.2 9.09 35, 41, 47 (Avg:44)
14 Levi Robinson Karumba Beamish 7 9:09:00 9.9, 7.2 8.74 30, 42, 47 (Avg:44)